sensor_id;sensor_type;location;lat;lon;timestamp;pressure;altitude;pressure_sealevel;temperature;humidity
21300;BME280;10809;49.476;11.016;2023-11-21T00:01:48;97712.03;;;7.88;66.60
21300;BME280;10809;49.476;11.016;2023-11-21T00:04:18;97712.91;;;7.89;66.47
21300;BME280;10809;49.476;11.016;2023-11-21T00:06:51;97712.91;;;7.89;66.40
21300;BME280;10809;49.476;11.016;2023-11-21T00:09:22;97707.63;;;7.89;66.49
21300;BME280;10809;49.476;11.016;2023-11-21T00:11:56;97706.69;;;7.90;66.78
21300;BME280;10809;49.476;11.016;2023-11-21T00:14:26;97702.28;;;7.90;66.39
21300;BME280;10809;49.476;11.016;2023-11-21T00:16:56;97705.78;;;7.91;66.61
21300;BME280;10809;49.476;11.016;2023-11-21T00:19:27;97711.06;;;7.91;66.61
21300;BME280;10809;49.476;11.016;2023-11-21T00:22:00;97710.09;;;7.92;66.63
21300;BME280;10809;49.476;11.016;2023-11-21T00:24:31;97709.16;;;7.93;66.80
21300;BME280;10809;49.476;11.016;2023-11-21T00:27:05;97703.88;;;7.93;66.48
21300;BME280;10809;49.476;11.016;2023-11-21T00:29:39;97706.53;;;7.93;66.89
21300;BME280;10809;49.476;11.016;2023-11-21T00:32:09;97702.97;;;7.94;66.74
21300;BME280;10809;49.476;11.016;2023-11-21T00:34:43;97703.88;;;7.93;66.98
21300;BME280;10809;49.476;11.016;2023-11-21T00:37:14;97709.06;;;7.94;66.62
21300;BME280;10809;49.476;11.016;2023-11-21T00:39:44;97704.66;;;7.95;66.97
21300;BME280;10809;49.476;11.016;2023-11-21T00:42:20;97707.31;;;7.95;66.86
21300;BME280;10809;49.476;11.016;2023-11-21T00:44:51;97700.25;;;7.95;66.60
21300;BME280;10809;49.476;11.016;2023-11-21T00:47:22;97707.31;;;7.95;66.73
21300;BME280;10809;49.476;11.016;2023-11-21T00:49:55;97698.53;;;7.94;66.92
21300;BME280;10809;49.476;11.016;2023-11-21T00:52:30;97694.13;;;7.95;66.79
21300;BME280;10809;49.476;11.016;2023-11-21T00:55:02;97696.84;;;7.93;66.73
21300;BME280;10809;49.476;11.016;2023-11-21T00:57:34;97702.13;;;7.93;66.97
21300;BME280;10809;49.476;11.016;2023-11-21T01:00:05;97705.69;;;7.92;66.78
21300;BME280;10809;49.476;11.016;2023-11-21T01:02:53;97703.13;;;7.91;66.84
21300;BME280;10809;49.476;11.016;2023-11-21T01:05:23;97710.09;;;7.92;67.00
21300;BME280;10809;49.476;11.016;2023-11-21T01:07:54;97713.69;;;7.91;66.85
21300;BME280;10809;49.476;11.016;2023-11-21T01:10:30;97709.31;;;7.90;67.11
21300;BME280;10809;49.476;11.016;2023-11-21T01:13:02;97708.41;;;7.91;67.37
21300;BME280;10809;49.476;11.016;2023-11-21T01:15:35;97711.06;;;7.91;67.28
21300;BME280;10809;49.476;11.016;2023-11-21T01:18:05;97714.59;;;7.90;67.01
21300;BME280;10809;49.476;11.016;2023-11-21T01:20:36;97711.13;;;7.89;66.91
21300;BME280;10809;49.476;11.016;2023-11-21T01:23:06;97711.97;;;7.90;67.29
21300;BME280;10809;49.476;11.016;2023-11-21T01:25:36;97702.38;;;7.89;67.05
21300;BME280;10809;49.476;11.016;2023-11-21T01:28:07;97717.22;;;7.90;67.20
21300;BME280;10809;49.476;11.016;2023-11-21T01:30:37;97713.78;;;7.89;67.08
21300;BME280;10809;49.476;11.016;2023-11-21T01:33:07;97711.13;;;7.89;67.39
21300;BME280;10809;49.476;11.016;2023-11-21T01:35:38;97709.41;;;7.88;67.43
21300;BME280;10809;49.476;11.016;2023-11-21T01:38:09;97711.22;;;7.88;67.29
21300;BME280;10809;49.476;11.016;2023-11-21T01:40:39;97707.72;;;7.87;67.02
21300;BME280;10809;49.476;11.016;2023-11-21T01:43:10;97709.50;;;7.87;67.29
21300;BME280;10809;49.476;11.016;2023-11-21T01:45:40;97706.84;;;7.87;67.12
21300;BME280;10809;49.476;11.016;2023-11-21T01:48:10;97701.66;;;7.85;67.13
21300;BME280;10809;49.476;11.016;2023-11-21T01:50:42;97701.66;;;7.85;67.21
21300;BME280;10809;49.476;11.016;2023-11-21T01:53:13;97697.34;;;7.84;67.11
21300;BME280;10809;49.476;11.016;2023-11-21T01:55:45;97700.06;;;7.82;67.24
21300;BME280;10809;49.476;11.016;2023-11-21T01:58:15;97693.94;;;7.82;67.14
21300;BME280;10809;49.476;11.016;2023-11-21T02:00:47;97696.66;;;7.80;67.50
21300;BME280;10809;49.476;11.016;2023-11-21T02:03:20;97694.88;;;7.81;67.33
21300;BME280;10809;49.476;11.016;2023-11-21T02:05:53;97695.75;;;7.82;67.27
21300;BME280;10809;49.476;11.016;2023-11-21T02:08:24;97701.91;;;7.80;67.36
21300;BME280;10809;49.476;11.016;2023-11-21T02:10:54;97698.38;;;7.82;67.49
21300;BME280;10809;49.476;11.016;2023-11-21T02:13:24;97693.94;;;7.82;67.30
21300;BME280;10809;49.476;11.016;2023-11-21T02:15:55;97693.09;;;7.82;67.62
21300;BME280;10809;49.476;11.016;2023-11-21T02:18:26;97681.63;;;7.82;67.50
21300;BME280;10809;49.476;11.016;2023-11-21T02:20:58;97689.53;;;7.82;67.43
21300;BME280;10809;49.476;11.016;2023-11-21T02:23:32;97688.66;;;7.82;67.61
21300;BME280;10809;49.476;11.016;2023-11-21T02:26:03;97692.16;;;7.82;67.54
21300;BME280;10809;49.476;11.016;2023-11-21T02:28:34;97681.63;;;7.82;67.57
21300;BME280;10809;49.476;11.016;2023-11-21T02:31:05;97693.84;;;7.83;67.48
21300;BME280;10809;49.476;11.016;2023-11-21T02:33:47;97691.28;;;7.82;67.61
21300;BME280;10809;49.476;11.016;2023-11-21T02:36:18;97691.28;;;7.82;67.52
21300;BME280;10809;49.476;11.016;2023-11-21T02:38:49;97690.47;;;7.82;67.30
21300;BME280;10809;49.476;11.016;2023-11-21T02:41:20;97692.25;;;7.81;67.57
21300;BME280;10809;49.476;11.016;2023-11-21T02:43:50;97686.97;;;7.81;67.75
21300;BME280;10809;49.476;11.016;2023-11-21T02:46:21;97684.34;;;7.81;67.88
21300;BME280;10809;49.476;11.016;2023-11-21T02:48:52;97685.19;;;7.82;67.74
21300;BME280;10809;49.476;11.016;2023-11-21T02:51:25;97682.66;;;7.80;67.60
21300;BME280;10809;49.476;11.016;2023-11-21T02:53:56;97685.28;;;7.80;67.60
21300;BME280;10809;49.476;11.016;2023-11-21T02:56:35;97676.50;;;7.79;67.77
21300;BME280;10809;49.476;11.016;2023-11-21T02:59:05;97682.72;;;7.78;67.63
21300;BME280;10809;49.476;11.016;2023-11-21T03:01:35;97681.88;;;7.78;67.45
21300;BME280;10809;49.476;11.016;2023-11-21T03:04:13;97678.38;;;7.77;67.73
21300;BME280;10809;49.476;11.016;2023-11-21T03:06:47;97675.72;;;7.77;67.78
21300;BME280;10809;49.476;11.016;2023-11-21T03:09:19;97671.41;;;7.76;67.51
21300;BME280;10809;49.476;11.016;2023-11-21T03:11:49;97682.78;;;7.77;67.70
21300;BME280;10809;49.476;11.016;2023-11-21T03:14:20;97670.47;;;7.77;67.82
21300;BME280;10809;49.476;11.016;2023-11-21T03:16:50;97681.00;;;7.77;67.75
21300;BME280;10809;49.476;11.016;2023-11-21T03:19:20;97681.00;;;7.77;67.82
21300;BME280;10809;49.476;11.016;2023-11-21T03:21:52;97681.00;;;7.77;67.78
21300;BME280;10809;49.476;11.016;2023-11-21T03:24:23;97686.28;;;7.77;67.78
21300;BME280;10809;49.476;11.016;2023-11-21T03:26:53;97688.91;;;7.77;67.69
21300;BME280;10809;49.476;11.016;2023-11-21T03:29:24;97689.84;;;7.76;67.78
21300;BME280;10809;49.476;11.016;2023-11-21T03:31:54;97685.41;;;7.77;67.87
21300;BME280;10809;49.476;11.016;2023-11-21T03:34:27;97689.84;;;7.76;67.84
21300;BME280;10809;49.476;11.016;2023-11-21T03:36:58;97689.84;;;7.76;68.01
21300;BME280;10809;49.476;11.016;2023-11-21T03:39:29;97685.50;;;7.75;67.77
21300;BME280;10809;49.476;11.016;2023-11-21T03:42:08;97684.66;;;7.75;67.94
21300;BME280;10809;49.476;11.016;2023-11-21T03:44:39;97691.63;;;7.76;67.45
21300;BME280;10809;49.476;11.016;2023-11-21T03:47:09;97690.78;;;7.75;67.64
21300;BME280;10809;49.476;11.016;2023-11-21T03:49:39;97689.06;;;7.74;67.95
21300;BME280;10809;49.476;11.016;2023-11-21T03:52:10;97688.13;;;7.75;67.71
21300;BME280;10809;49.476;11.016;2023-11-21T03:54:44;97683.81;;;7.74;67.86
21300;BME280;10809;49.476;11.016;2023-11-21T03:57:14;97686.44;;;7.74;68.22
21300;BME280;10809;49.476;11.016;2023-11-21T03:59:45;97690.94;;;7.72;67.91
21300;BME280;10809;49.476;11.016;2023-11-21T04:02:15;97693.56;;;7.72;68.05
21300;BME280;10809;49.476;11.016;2023-11-21T04:04:45;97697.06;;;7.73;68.17
21300;BME280;10809;49.476;11.016;2023-11-21T04:07:16;97699.78;;;7.71;67.89
21300;BME280;10809;49.476;11.016;2023-11-21T04:09:46;97702.41;;;7.71;67.79
21300;BME280;10809;49.476;11.016;2023-11-21T04:12:20;97696.28;;;7.71;68.18
21300;BME280;10809;49.476;11.016;2023-11-21T04:14:50;97691.97;;;7.70;68.01
21300;BME280;10809;49.476;11.016;2023-11-21T04:17:21;97692.81;;;7.70;67.98
21300;BME280;10809;49.476;11.016;2023-11-21T04:19:51;97698.09;;;7.70;67.89
21300;BME280;10809;49.476;11.016;2023-11-21T04:22:21;97698.09;;;7.70;67.98
21300;BME280;10809;49.476;11.016;2023-11-21T04:24:52;97693.75;;;7.69;68.24
21300;BME280;10809;49.476;11.016;2023-11-21T04:27:22;97689.41;;;7.68;68.28
21300;BME280;10809;49.476;11.016;2023-11-21T04:29:53;97692.03;;;7.68;67.84
21300;BME280;10809;49.476;11.016;2023-11-21T04:32:23;97692.03;;;7.68;68.04
21300;BME280;10809;49.476;11.016;2023-11-21T04:34:53;97697.31;;;7.68;68.18
21300;BME280;10809;49.476;11.016;2023-11-21T04:37:30;97698.25;;;7.67;68.09
21300;BME280;10809;49.476;11.016;2023-11-21T04:40:12;97699.16;;;7.66;68.20
21300;BME280;10809;49.476;11.016;2023-11-21T04:42:43;97707.06;;;7.66;67.94
21300;BME280;10809;49.476;11.016;2023-11-21T04:45:16;97697.47;;;7.65;68.38
21300;BME280;10809;49.476;11.016;2023-11-21T04:47:46;97705.31;;;7.67;68.44
21300;BME280;10809;49.476;11.016;2023-11-21T04:50:17;97705.38;;;7.65;68.22
21300;BME280;10809;49.476;11.016;2023-11-21T04:52:47;97714.06;;;7.67;68.23
21300;BME280;10809;49.476;11.016;2023-11-21T04:55:20;97714.16;;;7.66;68.18
21300;BME280;10809;49.476;11.016;2023-11-21T04:57:51;97712.44;;;7.65;68.38
21300;BME280;10809;49.476;11.016;2023-11-21T05:00:21;97712.34;;;7.66;68.24
21300;BME280;10809;49.476;11.016;2023-11-21T05:02:51;97714.06;;;7.67;68.15
21300;BME280;10809;49.476;11.016;2023-11-21T05:05:22;97715.91;;;7.65;68.32
21300;BME280;10809;49.476;11.016;2023-11-21T05:07:52;97716.69;;;7.67;68.18
21300;BME280;10809;49.476;11.016;2023-11-21T05:10:23;97714.97;;;7.66;68.45
21300;BME280;10809;49.476;11.016;2023-11-21T05:12:54;97716.69;;;7.67;68.26
21300;BME280;10809;49.476;11.016;2023-11-21T05:15:31;97714.06;;;7.67;68.36
21300;BME280;10809;49.476;11.016;2023-11-21T05:18:07;97725.50;;;7.66;68.32
21300;BME280;10809;49.476;11.016;2023-11-21T05:20:38;97716.69;;;7.67;68.60
21300;BME280;10809;49.476;11.016;2023-11-21T05:23:08;97722.88;;;7.66;68.24
21300;BME280;10809;49.476;11.016;2023-11-21T05:25:38;97721.97;;;7.67;68.42
21300;BME280;10809;49.476;11.016;2023-11-21T05:28:10;97727.25;;;7.67;68.59
21300;BME280;10809;49.476;11.016;2023-11-21T05:30:40;97731.66;;;7.67;68.58
21300;BME280;10809;49.476;11.016;2023-11-21T05:33:11;97735.16;;;7.67;69.10
21300;BME280;10809;49.476;11.016;2023-11-21T05:35:41;97738.59;;;7.68;68.63
21300;BME280;10809;49.476;11.016;2023-11-21T05:38:11;97738.59;;;7.68;68.42
21300;BME280;10809;49.476;11.016;2023-11-21T05:40:42;97740.41;;;7.67;68.45
21300;BME280;10809;49.476;11.016;2023-11-21T05:43:17;97747.38;;;7.68;68.61
21300;BME280;10809;49.476;11.016;2023-11-21T05:45:48;97748.31;;;7.67;68.67
21300;BME280;10809;49.476;11.016;2023-11-21T05:48:18;97742.97;;;7.69;68.55
21300;BME280;10809;49.476;11.016;2023-11-21T05:50:49;97749.06;;;7.69;68.64
21300;BME280;10809;49.476;11.016;2023-11-21T05:53:19;97744.66;;;7.70;68.78
21300;BME280;10809;49.476;11.016;2023-11-21T05:55:50;97751.63;;;7.71;68.76
21300;BME280;10809;49.476;11.016;2023-11-21T05:58:20;97757.75;;;7.71;68.59
21300;BME280;10809;49.476;11.016;2023-11-21T06:00:51;97751.53;;;7.72;68.76
21300;BME280;10809;49.476;11.016;2023-11-21T06:03:21;97751.53;;;7.72;68.96
21300;BME280;10809;49.476;11.016;2023-11-21T06:05:53;97756.72;;;7.74;68.72
21300;BME280;10809;49.476;11.016;2023-11-21T06:08:24;97759.38;;;7.74;68.74
21300;BME280;10809;49.476;11.016;2023-11-21T06:10:54;97766.44;;;7.73;68.61
21300;BME280;10809;49.476;11.016;2023-11-21T06:13:25;97762.84;;;7.74;68.55
21300;BME280;10809;49.476;11.016;2023-11-21T06:16:05;97767.19;;;7.75;68.46
21300;BME280;10809;49.476;11.016;2023-11-21T06:18:39;97769.81;;;7.75;68.85
21300;BME280;10809;49.476;11.016;2023-11-21T06:21:10;97761.91;;;7.75;68.87
21300;BME280;10809;49.476;11.016;2023-11-21T06:23:41;97761.09;;;7.75;68.74
21300;BME280;10809;49.476;11.016;2023-11-21T06:26:11;97772.47;;;7.75;68.84
21300;BME280;10809;49.476;11.016;2023-11-21T06:28:43;97766.34;;;7.75;68.81
21300;BME280;10809;49.476;11.016;2023-11-21T06:31:13;97769.81;;;7.75;68.67
21300;BME280;10809;49.476;11.016;2023-11-21T06:33:47;97766.34;;;7.75;68.79
21300;BME280;10809;49.476;11.016;2023-11-21T06:36:17;97774.25;;;7.75;69.06
21300;BME280;10809;49.476;11.016;2023-11-21T06:38:48;97774.25;;;7.75;68.88
21300;BME280;10809;49.476;11.016;2023-11-21T06:41:18;97776.03;;;7.74;68.89
21300;BME280;10809;49.476;11.016;2023-11-21T06:43:48;97776.03;;;7.74;68.54
21300;BME280;10809;49.476;11.016;2023-11-21T06:46:22;97780.44;;;7.74;69.00
21300;BME280;10809;49.476;11.016;2023-11-21T06:48:52;97787.44;;;7.75;69.02
21300;BME280;10809;49.476;11.016;2023-11-21T06:51:23;97786.56;;;7.74;69.08
21300;BME280;10809;49.476;11.016;2023-11-21T06:53:53;97794.47;;;7.74;68.67
21300;BME280;10809;49.476;11.016;2023-11-21T06:56:23;97797.19;;;7.73;68.79
21300;BME280;10809;49.476;11.016;2023-11-21T06:58:54;97802.38;;;7.74;68.97
21300;BME280;10809;49.476;11.016;2023-11-21T07:01:30;97817.25;;;7.75;69.18
21300;BME280;10809;49.476;11.016;2023-11-21T07:04:05;97819.97;;;7.74;69.02
21300;BME280;10809;49.476;11.016;2023-11-21T07:06:38;97811.97;;;7.75;68.92
21300;BME280;10809;49.476;11.016;2023-11-21T07:09:09;97824.31;;;7.75;69.07
21300;BME280;10809;49.476;11.016;2023-11-21T07:11:41;97831.28;;;7.76;69.25
21300;BME280;10809;49.476;11.016;2023-11-21T07:14:12;97833.84;;;7.77;69.20
21300;BME280;10809;49.476;11.016;2023-11-21T07:16:42;97825.03;;;7.78;69.09
21300;BME280;10809;49.476;11.016;2023-11-21T07:19:16;97832.94;;;7.78;69.13
21300;BME280;10809;49.476;11.016;2023-11-21T07:21:46;97836.31;;;7.80;69.19
21300;BME280;10809;49.476;11.016;2023-11-21T07:24:23;97840.69;;;7.82;69.20
21300;BME280;10809;49.476;11.016;2023-11-21T07:26:53;97844.16;;;7.82;69.25
21300;BME280;10809;49.476;11.016;2023-11-21T07:29:26;97849.41;;;7.82;69.23
21300;BME280;10809;49.476;11.016;2023-11-21T07:31:56;97847.56;;;7.84;69.20
21300;BME280;10809;49.476;11.016;2023-11-21T07:34:27;97847.56;;;7.84;69.28
21300;BME280;10809;49.476;11.016;2023-11-21T07:36:57;97856.19;;;7.88;69.49
21300;BME280;10809;49.476;11.016;2023-11-21T07:39:28;97857.00;;;7.88;69.15
21300;BME280;10809;49.476;11.016;2023-11-21T07:41:58;97852.59;;;7.89;69.38
21300;BME280;10809;49.476;11.016;2023-11-21T07:44:29;97856.00;;;7.91;69.47
21300;BME280;10809;49.476;11.016;2023-11-21T07:46:59;97855.94;;;7.92;69.65
21300;BME280;10809;49.476;11.016;2023-11-21T07:49:29;97857.63;;;7.93;69.22
21300;BME280;10809;49.476;11.016;2023-11-21T07:52:03;97853.97;;;7.96;69.38
21300;BME280;10809;49.476;11.016;2023-11-21T07:54:33;97857.38;;;7.98;69.52
21300;BME280;10809;49.476;11.016;2023-11-21T07:57:05;97861.72;;;7.99;69.55
21300;BME280;10809;49.476;11.016;2023-11-21T07:59:36;97866.81;;;8.02;69.69
21300;BME280;10809;49.476;11.016;2023-11-21T08:02:06;97854.50;;;8.02;69.74
21300;BME280;10809;49.476;11.016;2023-11-21T08:04:37;97864.88;;;8.05;69.38
21300;BME280;10809;49.476;11.016;2023-11-21T08:07:07;97869.22;;;8.06;69.45
21300;BME280;10809;49.476;11.016;2023-11-21T08:09:38;97869.13;;;8.08;69.71
21300;BME280;10809;49.476;11.016;2023-11-21T08:12:08;97877.81;;;8.10;69.69
21300;BME280;10809;49.476;11.016;2023-11-21T08:14:47;97870.88;;;8.09;69.37
21300;BME280;10809;49.476;11.016;2023-11-21T08:17:17;97881.31;;;8.10;69.55
21300;BME280;10809;49.476;11.016;2023-11-21T08:19:50;97878.63;;;8.12;69.24
21300;BME280;10809;49.476;11.016;2023-11-21T08:22:27;97878.63;;;8.12;69.32
21300;BME280;10809;49.476;11.016;2023-11-21T08:24:57;97875.97;;;8.12;69.47
21300;BME280;10809;49.476;11.016;2023-11-21T08:27:31;97866.19;;;8.14;69.16
21300;BME280;10809;49.476;11.016;2023-11-21T08:30:05;97862.63;;;8.15;69.59
21300;BME280;10809;49.476;11.016;2023-11-21T08:32:36;97867.91;;;8.15;69.39
21300;BME280;10809;49.476;11.016;2023-11-21T08:35:07;97866.09;;;8.15;69.27
21300;BME280;10809;49.476;11.016;2023-11-21T08:37:38;97873.09;;;8.16;69.31
21300;BME280;10809;49.476;11.016;2023-11-21T08:40:09;97872.16;;;8.17;69.79
21300;BME280;10809;49.476;11.016;2023-11-21T08:42:42;97872.06;;;8.19;69.56
21300;BME280;10809;49.476;11.016;2023-11-21T08:45:14;97872.84;;;8.21;69.88
21300;BME280;10809;49.476;11.016;2023-11-21T08:47:45;97884.16;;;8.23;69.55
21300;BME280;10809;49.476;11.016;2023-11-21T08:50:15;97887.47;;;8.26;69.79
21300;BME280;10809;49.476;11.016;2023-11-21T08:52:47;97892.69;;;8.28;69.48
21300;BME280;10809;49.476;11.016;2023-11-21T08:55:17;97896.09;;;8.30;69.72
21300;BME280;10809;49.476;11.016;2023-11-21T08:57:50;97896.00;;;8.31;69.58
21300;BME280;10809;49.476;11.016;2023-11-21T09:00:21;97893.28;;;8.33;69.83
21300;BME280;10809;49.476;11.016;2023-11-21T09:02:52;97902.91;;;8.34;69.45
21300;BME280;10809;49.476;11.016;2023-11-21T09:05:22;97895.78;;;8.36;69.42
21300;BME280;10809;49.476;11.016;2023-11-21T09:07:52;97903.59;;;8.37;69.24
21300;BME280;10809;49.476;11.016;2023-11-21T09:10:23;97908.78;;;8.39;69.76
21300;BME280;10809;49.476;11.016;2023-11-21T09:12:55;97911.28;;;8.42;69.46
21300;BME280;10809;49.476;11.016;2023-11-21T09:15:25;97911.97;;;8.45;69.87
21300;BME280;10809;49.476;11.016;2023-11-21T09:17:56;97910.09;;;8.47;69.92
21300;BME280;10809;49.476;11.016;2023-11-21T09:20:26;97919.63;;;8.50;69.63
21300;BME280;10809;49.476;11.016;2023-11-21T09:22:57;97927.38;;;8.53;69.90
21300;BME280;10809;49.476;11.016;2023-11-21T09:25:30;97922.69;;;8.58;69.88
21300;BME280;10809;49.476;11.016;2023-11-21T09:28:00;97928.75;;;8.60;69.77
21300;BME280;10809;49.476;11.016;2023-11-21T09:30:31;97931.25;;;8.63;69.91
21300;BME280;10809;49.476;11.016;2023-11-21T09:33:07;97939.88;;;8.66;69.71
21300;BME280;10809;49.476;11.016;2023-11-21T09:35:40;97940.63;;;8.68;69.94
21300;BME280;10809;49.476;11.016;2023-11-21T09:38:11;97942.25;;;8.71;69.94
21300;BME280;10809;49.476;11.016;2023-11-21T09:40:44;97942.94;;;8.74;69.77
21300;BME280;10809;49.476;11.016;2023-11-21T09:43:18;97941.94;;;8.77;70.16
21300;BME280;10809;49.476;11.016;2023-11-21T09:45:58;97939.13;;;8.80;69.96
21300;BME280;10809;49.476;11.016;2023-11-21T09:48:30;97942.53;;;8.82;69.97
21300;BME280;10809;49.476;11.016;2023-11-21T09:51:01;97938.00;;;8.84;69.81
21300;BME280;10809;49.476;11.016;2023-11-21T09:53:34;97942.38;;;8.85;69.24
21300;BME280;10809;49.476;11.016;2023-11-21T09:56:05;97941.50;;;8.84;69.26
21300;BME280;10809;49.476;11.016;2023-11-21T09:58:36;97944.16;;;8.84;69.28
21300;BME280;10809;49.476;11.016;2023-11-21T10:01:07;97940.66;;;8.84;69.30
21300;BME280;10809;49.476;11.016;2023-11-21T10:03:39;97940.75;;;8.82;69.09
21300;BME280;10809;49.476;11.016;2023-11-21T10:06:16;97937.25;;;8.82;69.09
21300;BME280;10809;49.476;11.016;2023-11-21T10:08:49;97937.31;;;8.80;69.43
21300;BME280;10809;49.476;11.016;2023-11-21T10:11:21;97936.41;;;8.81;69.27
21300;BME280;10809;49.476;11.016;2023-11-21T10:13:59;97939.03;;;8.81;69.57
21300;BME280;10809;49.476;11.016;2023-11-21T10:16:30;97932.00;;;8.82;69.50
21300;BME280;10809;49.476;11.016;2023-11-21T10:19:02;97937.19;;;8.83;69.88
21300;BME280;10809;49.476;11.016;2023-11-21T10:21:38;97935.38;;;8.84;69.61
21300;BME280;10809;49.476;11.016;2023-11-21T10:24:09;97934.38;;;8.86;69.52
21300;BME280;10809;49.476;11.016;2023-11-21T10:26:40;97937.84;;;8.87;69.49
21300;BME280;10809;49.476;11.016;2023-11-21T10:29:14;97935.97;;;8.89;69.86
21300;BME280;10809;49.476;11.016;2023-11-21T10:31:49;97938.44;;;8.92;69.94
21300;BME280;10809;49.476;11.016;2023-11-21T10:34:20;97936.50;;;8.95;69.95
21300;BME280;10809;49.476;11.016;2023-11-21T10:36:52;97938.03;;;8.99;70.06
21300;BME280;10809;49.476;11.016;2023-11-21T10:39:22;97936.00;;;9.04;69.98
21300;BME280;10809;49.476;11.016;2023-11-21T10:41:59;97938.47;;;9.07;69.60
21300;BME280;10809;49.476;11.016;2023-11-21T10:44:30;97938.31;;;9.10;69.79
21300;BME280;10809;49.476;11.016;2023-11-21T10:47:03;97938.97;;;9.14;70.09
21300;BME280;10809;49.476;11.016;2023-11-21T10:49:36;97942.22;;;9.19;69.82
21300;BME280;10809;49.476;11.016;2023-11-21T10:52:07;97946.44;;;9.21;69.89
21300;BME280;10809;49.476;11.016;2023-11-21T10:54:40;97949.69;;;9.26;69.83
21300;BME280;10809;49.476;11.016;2023-11-21T10:57:13;97948.56;;;9.30;69.86
21300;BME280;10809;49.476;11.016;2023-11-21T10:59:48;97947.50;;;9.34;69.73
21300;BME280;10809;49.476;11.016;2023-11-21T11:02:25;97944.59;;;9.39;69.85
21300;BME280;10809;49.476;11.016;2023-11-21T11:05:05;97951.38;;;9.43;69.79
21300;BME280;10809;49.476;11.016;2023-11-21T11:07:36;97956.50;;;9.46;69.92
21300;BME280;10809;49.476;11.016;2023-11-21T11:10:11;97955.50;;;9.48;69.58
21300;BME280;10809;49.476;11.016;2023-11-21T11:12:45;97954.63;;;9.48;68.97
21300;BME280;10809;49.476;11.016;2023-11-21T11:15:16;97951.22;;;9.46;68.73
21300;BME280;10809;49.476;11.016;2023-11-21T11:17:48;97952.25;;;9.43;68.78
21300;BME280;10809;49.476;11.016;2023-11-21T11:20:18;97953.19;;;9.42;68.68
21300;BME280;10809;49.476;11.016;2023-11-21T11:26:36;97953.63;;;9.35;68.88
21300;BME280;10809;49.476;11.016;2023-11-21T11:29:14;97942.38;;;9.31;68.29
21300;BME280;10809;49.476;11.016;2023-11-21T11:32:13;97949.69;;;9.26;68.36
21300;BME280;10809;49.476;11.016;2023-11-21T11:35:01;97954.28;;;9.23;68.45
21300;BME280;10809;49.476;11.016;2023-11-21T11:37:40;97951.06;;;9.18;68.59
21300;BME280;10809;49.476;11.016;2023-11-21T11:40:11;97952.94;;;9.16;68.48
21300;BME280;10809;49.476;11.016;2023-11-21T11:43:01;97955.75;;;9.13;68.90
21300;BME280;10809;49.476;11.016;2023-11-21T11:45:38;97960.25;;;9.11;68.68
21300;BME280;10809;49.476;11.016;2023-11-21T11:48:21;97948.94;;;9.09;68.78
21300;BME280;10809;49.476;11.016;2023-11-21T11:51:13;97947.22;;;9.08;68.84
21300;BME280;10809;49.476;11.016;2023-11-21T11:53:52;97949.88;;;9.08;69.19
21300;BME280;10809;49.476;11.016;2023-11-21T11:56:34;97957.78;;;9.08;69.06
21300;BME280;10809;49.476;11.016;2023-11-21T11:59:06;97963.06;;;9.08;68.86
21300;BME280;10809;49.476;11.016;2023-11-21T12:01:45;97972.72;;;9.09;68.75
21300;BME280;10809;49.476;11.016;2023-11-21T12:07:05;97963.06;;;9.08;68.90
21300;BME280;10809;49.476;11.016;2023-11-21T12:09:36;97971.84;;;9.08;68.83
21300;BME280;10809;49.476;11.016;2023-11-21T12:12:08;97968.25;;;9.09;69.04
21300;BME280;10809;49.476;11.016;2023-11-21T12:14:41;97963.84;;;9.10;69.22
21300;BME280;10809;49.476;11.016;2023-11-21T12:17:12;97976.09;;;9.11;69.14
21300;BME280;10809;49.476;11.016;2023-11-21T12:19:43;97970.81;;;9.11;69.17
21300;BME280;10809;49.476;11.016;2023-11-21T12:22:17;97968.97;;;9.13;69.48
21300;BME280;10809;49.476;11.016;2023-11-21T12:24:48;97969.75;;;9.15;69.22
21300;BME280;10809;49.476;11.016;2023-11-21T12:27:20;97968.69;;;9.17;69.09
21300;BME280;10809;49.476;11.016;2023-11-21T12:29:51;97976.53;;;9.19;69.34
21300;BME280;10809;49.476;11.016;2023-11-21T12:32:21;97977.31;;;9.21;69.18
21300;BME280;10809;49.476;11.016;2023-11-21T12:34:51;97968.38;;;9.23;69.18
21300;BME280;10809;49.476;11.016;2023-11-21T12:37:22;97971.88;;;9.24;69.02
21300;BME280;10809;49.476;11.016;2023-11-21T12:39:52;97973.56;;;9.25;68.98
21300;BME280;10809;49.476;11.016;2023-11-21T12:42:27;97976.97;;;9.27;69.12
21300;BME280;10809;49.476;11.016;2023-11-21T12:47:48;97990.09;;;9.28;68.91
21300;BME280;10809;49.476;11.016;2023-11-21T12:50:25;97988.28;;;9.29;68.86
21300;BME280;10809;49.476;11.016;2023-11-21T12:53:09;97986.50;;;9.29;69.01
21300;BME280;10809;49.476;11.016;2023-11-21T12:55:43;97995.31;;;9.30;69.15
21300;BME280;10809;49.476;11.016;2023-11-21T12:58:21;97994.44;;;9.29;68.91
21300;BME280;10809;49.476;11.016;2023-11-21T13:00:57;98000.59;;;9.30;69.12
21300;BME280;10809;49.476;11.016;2023-11-21T13:03:28;98000.59;;;9.30;68.88
21300;BME280;10809;49.476;11.016;2023-11-21T13:05:59;98002.38;;;9.29;69.00
21300;BME280;10809;49.476;11.016;2023-11-21T13:08:34;98000.59;;;9.30;69.14
21300;BME280;10809;49.476;11.016;2023-11-21T13:11:05;97997.09;;;9.29;68.78
21300;BME280;10809;49.476;11.016;2023-11-21T13:13:41;98003.22;;;9.30;69.14
21300;BME280;10809;49.476;11.016;2023-11-21T13:16:12;98006.69;;;9.30;69.09
21300;BME280;10809;49.476;11.016;2023-11-21T13:18:43;98004.06;;;9.30;69.19
21300;BME280;10809;49.476;11.016;2023-11-21T13:21:14;98002.28;;;9.31;68.93
21300;BME280;10809;49.476;11.016;2023-11-21T13:23:45;98001.34;;;9.32;68.95
21300;BME280;10809;49.476;11.016;2023-11-21T13:26:16;98004.84;;;9.32;68.86
21300;BME280;10809;49.476;11.016;2023-11-21T13:28:50;98010.13;;;9.32;68.76
21300;BME280;10809;49.476;11.016;2023-11-21T13:31:20;98009.19;;;9.33;68.97
21300;BME280;10809;49.476;11.016;2023-11-21T13:33:52;98014.50;;;9.33;68.61
21300;BME280;10809;49.476;11.016;2023-11-21T13:36:29;98007.41;;;9.34;68.73